Terminal Aerodrome Forecast
Issued by NWS

Home | Current Version | Previous Version | Text Only | Print | Product List | Glossary On
Versions: 1 2 3 4 5 6 7 8 9 10 11 12 13 14 15 16 17 18 19 20 21 22 23 24 25 26 27 28 29 30 31 32 33
000
FTAK31 PANC 231120
TAFADU
TAF
PADU 231120Z 2312/2412 32012G22KT 6SM -SHRA SCT012 OVC020
     FM240900 31010G17KT 6SM -SHSN BKN025 OVC035=

USA.gov is the U.S. government's official web portal to all federal, state and local government web resources and services.